Eiwa Maru No.2 — JG5333 — position and weather

sailwx.info

Track history (hours):
 
Tides and Currents Weather Stations Pressure Air Temp Water Temp Dewpoint Dewpoint Depression Visibility Wind Speed Wind Dir Waves Ship Positions

Eiwa Maru No.2

Last reported at 2018-Jun-24 00:49 UTC. Time now 2018-Jun-24 20:40 UTC.
Position N 33°50' E 135°04'.

Length 65 m; draft 3.5 m.

Type: Tanker. MMSI: 431400355.

Date/timePositionNaut miles runAvg speedWind from/ knotsBaromVisibWave heightAir tempDewpointWater temp
2018-Jun-24 00:49N 33°50' E 135°04'411.7
2018-Jun-24 00:30N 33°53' E 135°01'611.5
2018-Jun-24 00:00N 33°59' E 134°59'611.4
2018-Jun-23 23:30N 34°04' E 134°58'611.4
2018-Jun-23 23:00N 34°10' E 134°58'611.3
2018-Jun-23 22:30N 34°16' E 134°58'611.1
2018-Jun-23 22:01N 34°21' E 134°59'510.7
2018-Jun-23 21:30N 34°25' E 135°04'510.6
2018-Jun-23 21:01N 34°24' E 135°10'0 1.0
2018-Jun-23 20:30N 34°24' E 135°10'0 0.1
2018-Jun-23 19:58N 34°24' E 135°10'0 0.0
2018-Jun-23 19:25N 34°24' E 135°10'0 0.0
2018-Jun-23 18:58N 34°24' E 135°10'0 0.0
2018-Jun-23 18:25N 34°24' E 135°10'0 0.1
2018-Jun-23 17:58N 34°24' E 135°10'0 0.0
2018-Jun-23 17:25N 34°24' E 135°10'0 0.0
2018-Jun-23 16:58N 34°24' E 135°10'0 0.0
2018-Jun-23 16:28N 34°24' E 135°10'0 0.0
2018-Jun-23 15:55N 34°24' E 135°10'0 0.0
2018-Jun-23 15:28N 34°24' E 135°10'0 0.0
2018-Jun-23 14:46N 34°24' E 135°10'0 0.0
2018-Jun-23 14:25N 34°24' E 135°10'0 0.1
2018-Jun-23 13:58N 34°24' E 135°10'0 0.1
2018-Jun-23 13:25N 34°24' E 135°10'0 0.0
2018-Jun-23 12:49N 34°24' E 135°10'0 0.0
2018-Jun-23 12:28N 34°24' E 135°10'0 0.0
2018-Jun-23 11:58N 34°24' E 135°10'0 0.0
2018-Jun-23 11:22N 34°24' E 135°10'0 0.1
2018-Jun-23 10:55N 34°24' E 135°10'0 0.0
2018-Jun-23 10:28N 34°24' E 135°10'0 0.0
2018-Jun-23 09:58N 34°24' E 135°10'0 0.0
2018-Jun-23 09:25N 34°24' E 135°10'0 0.0
2018-Jun-23 08:58N 34°24' E 135°10'0 0.0
2018-Jun-23 08:25N 34°24' E 135°10'0 0.0
2018-Jun-23 07:55N 34°24' E 135°10'0 0.0
2018-Jun-23 07:25N 34°24' E 135°10'0 0.1
2018-Jun-23 06:43N 34°24' E 135°10'0 0.2
2018-Jun-23 06:28N 34°24' E 135°10'0 0.0
2018-Jun-23 05:58N 34°24' E 135°10'0 0.1
2018-Jun-23 05:30N 34°24' E 135°10'3 6.4
2018-Jun-23 05:00N 34°27' E 135°11'611.6
2018-Jun-23 04:30N 34°32' E 135°14'611.3
2018-Jun-23 03:59N 34°38' E 135°16'4 9.0
2018-Jun-23 03:30N 34°42' E 135°15'0 0.9
2018-Jun-23 03:00N 34°42' E 135°16'0 0.0
2018-Jun-23 02:30N 34°42' E 135°16'0 0.0
2018-Jun-23 02:00N 34°42' E 135°16'0 0.1
2018-Jun-23 01:30N 34°42' E 135°16'2 4.6
2018-Jun-23 01:00N 34°40' E 135°15'3 6.1
2018-Jun-23 00:30N 34°37' E 135°16'0 0.0
2018-Jun-22 23:59N 34°37' E 135°16'0 0.0
2018-Jun-22 23:29N 34°37' E 135°16'0 0.0
2018-Jun-22 22:59N 34°37' E 135°16'0 0.0
2018-Jun-22 22:29N 34°37' E 135°16'0 0.0
2018-Jun-22 21:59N 34°37' E 135°16'0 0.0
2018-Jun-22 21:29N 34°37' E 135°16'0 0.0
2018-Jun-22 20:59N 34°37' E 135°16'0 0.0
2018-Jun-22 20:29N 34°37' E 135°16'0 0.1
2018-Jun-22 20:00N 34°37' E 135°17'4 8.6
2018-Jun-22 19:30N 34°35' E 135°12'611.1
2018-Jun-22 19:00N 34°33' E 135°06'5 9.8
2018-Jun-22 18:30N 34°37' E 135°01'5 9.3
2018-Jun-22 17:56N 34°35' E 134°55'510.4
2018-Jun-22 17:30N 34°34' E 134°50'510.9
2018-Jun-22 17:00N 34°32' E 134°44'611.2
2018-Jun-22 16:30N 34°29' E 134°37'611.4
2018-Jun-22 16:01N 34°27' E 134°31'611.2
2018-Jun-22 15:30N 34°25' E 134°25'511.0
2018-Jun-22 15:00N 34°24' E 134°18'611.4
2018-Jun-22 14:31N 34°24' E 134°12'811.2
2018-Jun-22 13:49N 34°26' E 134°02'412.1
2018-Jun-22 13:27N 34°25' E 133°57'  
2018-Jun-16 07:04N 34°28' E 134°31'110.7
2018-Jun-16 07:00N 34°28' E 134°32'611.0
2018-Jun-16 06:28N 34°30' E 134°38'511.1
2018-Jun-16 06:00N 34°32' E 134°44'510.4
2018-Jun-16 05:30N 34°34' E 134°50'5 9.2
2018-Jun-16 04:59N 34°36' E 134°55'5 9.8
2018-Jun-16 04:30N 34°37' E 135°01'5 9.2
2018-Jun-16 04:00N 34°35' E 135°05'611.9
2018-Jun-16 03:30N 34°29' E 135°03'611.6
2018-Jun-16 03:00N 34°23' E 135°01'611.3
2018-Jun-16 02:30N 34°18' E 134°59'611.2
2018-Jun-16 02:00N 34°12' E 134°60'611.4
2018-Jun-16 01:30N 34°07' E 135°01'611.3
2018-Jun-16 01:00N 34°01' E 135°02'611.3
2018-Jun-16 00:27N 33°55' E 135°02'510.3
2018-Jun-15 23:58N 33°50' E 135°04'24410.0
2018-Jun-14 23:37N 35°10' E 139°44'213.2
2018-Jun-14 23:27N 35°11' E 139°45'612.7
2018-Jun-14 23:00N 35°17' E 139°45'612.4
2018-Jun-14 22:30N 35°23' E 139°42'4 7.6
2018-Jun-14 22:00N 35°27' E 139°42'0 0.1
2018-Jun-14 21:30N 35°27' E 139°42'3 5.5
2018-Jun-14 21:01N 35°29' E 139°41'0 0.4
2018-Jun-14 20:30N 35°29' E 139°41'0 0.0
2018-Jun-14 19:59N 35°29' E 139°41'0 0.0
2018-Jun-14 19:29N 35°29' E 139°41'0 0.0
2018-Jun-14 18:59N 35°29' E 139°41'0 0.0
2018-Jun-14 18:29N 35°29' E 139°41'0 0.0
2018-Jun-14 17:59N 35°29' E 139°41'0 0.0
2018-Jun-14 17:29N 35°29' E 139°41'0 0.0
2018-Jun-14 16:59N 35°29' E 139°41'0 0.0
2018-Jun-14 16:29N 35°29' E 139°41'0 0.0
2018-Jun-14 15:59N 35°29' E 139°41'0 0.0
2018-Jun-14 15:29N 35°29' E 139°41'0 0.0
2018-Jun-14 14:59N 35°29' E 139°41'0 0.0
2018-Jun-14 14:29N 35°29' E 139°41'0 0.0
2018-Jun-14 13:59N 35°29' E 139°41'0 0.0
2018-Jun-14 13:29N 35°29' E 139°41'0 0.0
2018-Jun-14 12:59N 35°29' E 139°41'0 0.0
2018-Jun-14 12:29N 35°29' E 139°41'0 0.0
2018-Jun-14 11:59N 35°29' E 139°41'0 0.0
2018-Jun-14 11:29N 35°29' E 139°41'0 0.0
2018-Jun-14 10:59N 35°29' E 139°41'0 0.0
2018-Jun-14 10:29N 35°29' E 139°41'0 0.0
2018-Jun-14 09:59N 35°29' E 139°41'0 0.0
2018-Jun-14 09:29N 35°29' E 139°41'0 0.0
2018-Jun-14 08:59N 35°29' E 139°41'1 1.7
2018-Jun-14 08:30N 35°29' E 139°41'2 4.6
2018-Jun-14 08:00N 35°28' E 139°44'0 0.1
2018-Jun-14 07:30N 35°28' E 139°44'0 0.0
2018-Jun-14 07:00N 35°28' E 139°44'0 0.0
2018-Jun-14 06:30N 35°28' E 139°44'0 0.0
2018-Jun-14 05:57N 35°28' E 139°44'0 0.0
2018-Jun-14 05:30N 35°28' E 139°44'0 0.0
2018-Jun-14 04:57N 35°28' E 139°44'0 0.0
2018-Jun-14 04:30N 35°28' E 139°44'0 0.0
2018-Jun-14 04:00N 35°28' E 139°44'0 0.0
2018-Jun-14 03:30N 35°28' E 139°44'0 0.0
2018-Jun-14 03:00N 35°28' E 139°44'0 0.0
2018-Jun-14 02:30N 35°28' E 139°44'0 0.0
2018-Jun-14 02:00N 35°28' E 139°44'0 0.0
2018-Jun-14 01:30N 35°28' E 139°44'0 0.0
2018-Jun-14 00:57N 35°28' E 139°44'  
Track history (hours):
 
Tides and Currents Weather Stations Pressure Air Temp Water Temp Dewpoint Dewpoint Depression Visibility Wind Speed Wind Dir Waves Ship Positions

Eiwa Maru No.2

Last reported at 2018-Jun-24 00:49 UTC. Time now 2018-Jun-24 20:40 UTC.
Position N 33°50' E 135°04'.

Length 65 m; draft 3.5 m.

Type: Tanker. MMSI: 431400355.

Date/timePositionNaut miles runAvg speedWind from/ knotsBaromVisibWave heightAir tempDewpointWater temp
2018-Jun-24 00:49N 33°50' E 135°04'411.7
2018-Jun-24 00:30N 33°53' E 135°01'611.5
2018-Jun-24 00:00N 33°59' E 134°59'611.4
2018-Jun-23 23:30N 34°04' E 134°58'611.4
2018-Jun-23 23:00N 34°10' E 134°58'611.3
2018-Jun-23 22:30N 34°16' E 134°58'611.1
2018-Jun-23 22:01N 34°21' E 134°59'510.7
2018-Jun-23 21:30N 34°25' E 135°04'510.6
2018-Jun-23 21:01N 34°24' E 135°10'0 1.0
2018-Jun-23 20:30N 34°24' E 135°10'0 0.1
2018-Jun-23 19:58N 34°24' E 135°10'0 0.0
2018-Jun-23 19:25N 34°24' E 135°10'0 0.0
2018-Jun-23 18:58N 34°24' E 135°10'0 0.0
2018-Jun-23 18:25N 34°24' E 135°10'0 0.1
2018-Jun-23 17:58N 34°24' E 135°10'0 0.0
2018-Jun-23 17:25N 34°24' E 135°10'0 0.0
2018-Jun-23 16:58N 34°24' E 135°10'0 0.0
2018-Jun-23 16:28N 34°24' E 135°10'0 0.0
2018-Jun-23 15:55N 34°24' E 135°10'0 0.0
2018-Jun-23 15:28N 34°24' E 135°10'0 0.0
2018-Jun-23 14:46N 34°24' E 135°10'0 0.0
2018-Jun-23 14:25N 34°24' E 135°10'0 0.1
2018-Jun-23 13:58N 34°24' E 135°10'0 0.1
2018-Jun-23 13:25N 34°24' E 135°10'0 0.0
2018-Jun-23 12:49N 34°24' E 135°10'0 0.0
2018-Jun-23 12:28N 34°24' E 135°10'0 0.0
2018-Jun-23 11:58N 34°24' E 135°10'0 0.0
2018-Jun-23 11:22N 34°24' E 135°10'0 0.1
2018-Jun-23 10:55N 34°24' E 135°10'0 0.0
2018-Jun-23 10:28N 34°24' E 135°10'0 0.0
2018-Jun-23 09:58N 34°24' E 135°10'0 0.0
2018-Jun-23 09:25N 34°24' E 135°10'0 0.0
2018-Jun-23 08:58N 34°24' E 135°10'0 0.0
2018-Jun-23 08:25N 34°24' E 135°10'0 0.0
2018-Jun-23 07:55N 34°24' E 135°10'0 0.0
2018-Jun-23 07:25N 34°24' E 135°10'0 0.1
2018-Jun-23 06:43N 34°24' E 135°10'0 0.2
2018-Jun-23 06:28N 34°24' E 135°10'0 0.0
2018-Jun-23 05:58N 34°24' E 135°10'0 0.1
2018-Jun-23 05:30N 34°24' E 135°10'3 6.4
2018-Jun-23 05:00N 34°27' E 135°11'611.6
2018-Jun-23 04:30N 34°32' E 135°14'611.3
2018-Jun-23 03:59N 34°38' E 135°16'4 9.0
2018-Jun-23 03:30N 34°42' E 135°15'0 0.9
2018-Jun-23 03:00N 34°42' E 135°16'0 0.0
2018-Jun-23 02:30N 34°42' E 135°16'0 0.0
2018-Jun-23 02:00N 34°42' E 135°16'0 0.1
2018-Jun-23 01:30N 34°42' E 135°16'2 4.6
2018-Jun-23 01:00N 34°40' E 135°15'3 6.1
2018-Jun-23 00:30N 34°37' E 135°16'0 0.0
2018-Jun-22 23:59N 34°37' E 135°16'0 0.0
2018-Jun-22 23:29N 34°37' E 135°16'0 0.0
2018-Jun-22 22:59N 34°37' E 135°16'0 0.0
2018-Jun-22 22:29N 34°37' E 135°16'0 0.0
2018-Jun-22 21:59N 34°37' E 135°16'0 0.0
2018-Jun-22 21:29N 34°37' E 135°16'0 0.0
2018-Jun-22 20:59N 34°37' E 135°16'0 0.0
2018-Jun-22 20:29N 34°37' E 135°16'0 0.1
2018-Jun-22 20:00N 34°37' E 135°17'4 8.6
2018-Jun-22 19:30N 34°35' E 135°12'611.1
2018-Jun-22 19:00N 34°33' E 135°06'5 9.8
2018-Jun-22 18:30N 34°37' E 135°01'5 9.3
2018-Jun-22 17:56N 34°35' E 134°55'510.4
2018-Jun-22 17:30N 34°34' E 134°50'510.9
2018-Jun-22 17:00N 34°32' E 134°44'611.2
2018-Jun-22 16:30N 34°29' E 134°37'611.4
2018-Jun-22 16:01N 34°27' E 134°31'611.2
2018-Jun-22 15:30N 34°25' E 134°25'511.0
2018-Jun-22 15:00N 34°24' E 134°18'611.4
2018-Jun-22 14:31N 34°24' E 134°12'811.2
2018-Jun-22 13:49N 34°26' E 134°02'412.1
2018-Jun-22 13:27N 34°25' E 133°57'  
2018-Jun-16 07:04N 34°28' E 134°31'110.7
2018-Jun-16 07:00N 34°28' E 134°32'611.0
2018-Jun-16 06:28N 34°30' E 134°38'511.1
2018-Jun-16 06:00N 34°32' E 134°44'510.4
2018-Jun-16 05:30N 34°34' E 134°50'5 9.2
2018-Jun-16 04:59N 34°36' E 134°55'5 9.8
2018-Jun-16 04:30N 34°37' E 135°01'5 9.2
2018-Jun-16 04:00N 34°35' E 135°05'611.9
2018-Jun-16 03:30N 34°29' E 135°03'611.6
2018-Jun-16 03:00N 34°23' E 135°01'611.3
2018-Jun-16 02:30N 34°18' E 134°59'611.2
2018-Jun-16 02:00N 34°12' E 134°60'611.4
2018-Jun-16 01:30N 34°07' E 135°01'611.3
2018-Jun-16 01:00N 34°01' E 135°02'611.3
2018-Jun-16 00:27N 33°55' E 135°02'510.3
2018-Jun-15 23:58N 33°50' E 135°04'24410.0
2018-Jun-14 23:37N 35°10' E 139°44'213.2
2018-Jun-14 23:27N 35°11' E 139°45'612.7
2018-Jun-14 23:00N 35°17' E 139°45'612.4
2018-Jun-14 22:30N 35°23' E 139°42'4 7.6
2018-Jun-14 22:00N 35°27' E 139°42'0 0.1
2018-Jun-14 21:30N 35°27' E 139°42'3 5.5
2018-Jun-14 21:01N 35°29' E 139°41'0 0.4
2018-Jun-14 20:30N 35°29' E 139°41'0 0.0
2018-Jun-14 19:59N 35°29' E 139°41'0 0.0
2018-Jun-14 19:29N 35°29' E 139°41'0 0.0
2018-Jun-14 18:59N 35°29' E 139°41'0 0.0
2018-Jun-14 18:29N 35°29' E 139°41'0 0.0
2018-Jun-14 17:59N 35°29' E 139°41'0 0.0
2018-Jun-14 17:29N 35°29' E 139°41'0 0.0
2018-Jun-14 16:59N 35°29' E 139°41'0 0.0
2018-Jun-14 16:29N 35°29' E 139°41'0 0.0
2018-Jun-14 15:59N 35°29' E 139°41'0 0.0
2018-Jun-14 15:29N 35°29' E 139°41'0 0.0
2018-Jun-14 14:59N 35°29' E 139°41'0 0.0
2018-Jun-14 14:29N 35°29' E 139°41'0 0.0
2018-Jun-14 13:59N 35°29' E 139°41'0 0.0
2018-Jun-14 13:29N 35°29' E 139°41'0 0.0
2018-Jun-14 12:59N 35°29' E 139°41'0 0.0
2018-Jun-14 12:29N 35°29' E 139°41'0 0.0
2018-Jun-14 11:59N 35°29' E 139°41'0 0.0
2018-Jun-14 11:29N 35°29' E 139°41'0 0.0
2018-Jun-14 10:59N 35°29' E 139°41'0 0.0
2018-Jun-14 10:29N 35°29' E 139°41'0 0.0
2018-Jun-14 09:59N 35°29' E 139°41'0 0.0
2018-Jun-14 09:29N 35°29' E 139°41'0 0.0
2018-Jun-14 08:59N 35°29' E 139°41'1 1.7
2018-Jun-14 08:30N 35°29' E 139°41'2 4.6
2018-Jun-14 08:00N 35°28' E 139°44'0 0.1
2018-Jun-14 07:30N 35°28' E 139°44'0 0.0
2018-Jun-14 07:00N 35°28' E 139°44'0 0.0
2018-Jun-14 06:30N 35°28' E 139°44'0 0.0
2018-Jun-14 05:57N 35°28' E 139°44'0 0.0
2018-Jun-14 05:30N 35°28' E 139°44'0 0.0
2018-Jun-14 04:57N 35°28' E 139°44'0 0.0
2018-Jun-14 04:30N 35°28' E 139°44'0 0.0
2018-Jun-14 04:00N 35°28' E 139°44'0 0.0
2018-Jun-14 03:30N 35°28' E 139°44'0 0.0
2018-Jun-14 03:00N 35°28' E 139°44'0 0.0
2018-Jun-14 02:30N 35°28' E 139°44'0 0.0
2018-Jun-14 02:00N 35°28' E 139°44'0 0.0
2018-Jun-14 01:30N 35°28' E 139°44'0 0.0
2018-Jun-14 00:57N 35°28' E 139°44'  

Dump ship's entire track history